< < Back
Terminal Aerodrome Forecast


Current Version              Previous Versions:   1  2  3  4  5  6  7  8  9  

Terminal Aerodrome Forecast

040
FTUS42 KFFC 272327
TAFMCN
TAF
KMCN 272327Z 2800/2824 23005KT P6SM SCT060 BKN250
     FM280200 12003KT P6SM VCSH SCT035 BKN060
      TEMPO 2803/2807 5SM TSRA BR BKN035CB
     FM280700 00000KT P6SM BKN035 OVC060
     FM281000 00000KT 6SM BR BKN012 OVC060
     FM281400 31006KT P6SM SCT040 PROB30 2816/2822 5SM TSRA BKN035CB
     FM282200 35007KT P6SM VCSH BKN035=



Latest METAR

354
SAUS80 KWBC 280300 RRB
MTRMCN
METAR KMCN 280253Z AUTO 25003KT 10SM CLR 28/21 A3001 RMK AO2 SLP155
T02780206 51017 TSNO


USA.gov is the U.S. government's official web portal to all federal, state and local government web resources and services.